Circle Line Xii — WM8392 — position and weather

sailwx.info

Track history (hours):
 
Tides and Currents Weather Stations Pressure Air Temp Water Temp Dewpoint Dewpoint Depression Visibility Wind Speed Wind Dir Waves Ship Positions

Circle Line Xii

Owner: CIRCLE LINE SIGHTSEEING YACHTS, NEW YORK, NY. More information available from US FCC via Universal Licensing System and Coast Guard Vessel Documentation Center.

Last reported at 2015-May-05 00:32 UTC. Time now 2015-May-05 01:10 UTC.
Position N 40°46' W 074°00'.

MMSI: 367032250.

Date/timePositionNaut miles runAvg speedWind from/ knotsBaromVisibWave heightAir tempDewpointWater temp
2015-May-05 00:32N 40°46' W 074°00'3 3.1
2015-May-04 23:33N 40°43' W 073°58'3 2.9
2015-May-04 22:31N 40°46' W 074°00'0 0.0
2015-May-04 21:31N 40°46' W 074°00'2 2.4
2015-May-04 20:33N 40°44' W 073°58'2 2.2
2015-May-04 19:32N 40°46' W 074°00'1 1.5
2015-May-04 18:34N 40°45' W 074°01'3 3.5
2015-May-04 17:33N 40°41' W 074°03'1 0.0
2015-May-03 00:33N 40°42' W 074°01'1 1.1
2015-May-02 23:34N 40°42' W 074°02'5 4.4
2015-May-02 22:32N 40°46' W 074°00'0 0.0
2015-May-02 21:32N 40°46' W 074°00'0 0.0
2015-May-02 20:29N 40°46' W 074°00'0 0.0
2015-May-02 19:32N 40°46' W 074°00'0 0.0
2015-May-02 18:32N 40°46' W 074°00'0 0.0
2015-May-02 17:32N 40°46' W 074°00'0 0.0
2015-May-02 16:32N 40°46' W 074°00'0 0.0
2015-May-02 15:32N 40°46' W 074°00'0 0.0
2015-May-02 14:32N 40°46' W 074°00'0 0.0
2015-May-02 13:32N 40°46' W 074°00'0 0.0
2015-May-02 12:32N 40°46' W 074°00'0 0.0
2015-May-02 11:32N 40°46' W 074°00'0 0.0
2015-May-02 10:32N 40°46' W 074°00'0 0.0
2015-May-02 09:32N 40°46' W 074°00'0 0.0
2015-May-02 08:32N 40°46' W 074°00'0 0.0
2015-May-02 07:32N 40°46' W 074°00'0 0.0
2015-May-02 06:32N 40°46' W 074°00'0 0.0
2015-May-02 05:32N 40°46' W 074°00'0 0.0
2015-May-02 04:32N 40°46' W 074°00'0 0.0
2015-May-02 03:32N 40°46' W 074°00'0 0.0
2015-May-02 02:32N 40°46' W 074°00'0 0.0
2015-May-02 01:32N 40°46' W 074°00'2 2.5
2015-May-02 00:33N 40°43' W 074°01'2 1.9
2015-May-01 23:33N 40°42' W 074°02'4 4.1
2015-May-01 22:31N 40°46' W 074°00'0 0.0
2015-May-01 21:33N 40°46' W 074°00'0 0.0
2015-May-01 20:33N 40°46' W 074°00'0 0.0
2015-May-01 19:33N 40°46' W 074°00'0 0.0
2015-May-01 18:33N 40°46' W 074°00'0 0.0
2015-May-01 17:33N 40°46' W 074°00'0 0.0
2015-May-01 16:33N 40°46' W 074°00'0 0.0
2015-May-01 14:33N 40°46' W 074°00'0 0.0
2015-May-01 13:33N 40°46' W 074°00'0 0.0
2015-Apr-30 21:33N 40°46' W 074°00'2 2.5
2015-Apr-30 20:33N 40°44' W 073°58'2 2.4
2015-Apr-30 19:33N 40°46' W 074°00'2 2.0
2015-Apr-30 18:33N 40°44' W 074°01'3 3.1
2015-Apr-30 17:33N 40°41' W 074°03'5 4.9
2015-Apr-30 16:31N 40°46' W 074°00'0 0.0
2015-Apr-29 19:34N 40°46' W 074°00'0 0.1
2015-Apr-29 18:32N 40°46' W 074°00'0 0.0
2015-Apr-29 17:32N 40°46' W 074°00'3 2.8
2015-Apr-29 16:34N 40°43' W 074°01'2 2.3
2015-Apr-29 15:33N 40°41' W 074°03'5 0.3
2015-Apr-28 19:33N 40°46' W 074°00'0 0.0
2015-Apr-28 18:33N 40°46' W 074°00'0 0.0
2015-Apr-28 17:33N 40°46' W 074°00'2 1.8
2015-Apr-28 16:33N 40°44' W 074°01'3 3.0
2015-Apr-28 15:33N 40°41' W 074°02'5 4.7
2015-Apr-28 14:32N 40°46' W 074°00'0 0.0
2015-Apr-27 21:17N 40°46' W 074°00'54557559.0
2015-Apr-27 20:34S 50°09' W 073°58'54555381.8
2015-Apr-27 19:33N 40°46' W 074°00'2 2.4
2015-Apr-27 18:33N 40°44' W 074°01'2 2.5
2015-Apr-27 17:33N 40°41' W 074°02'5 4.6
2015-Apr-27 16:31N 40°46' W 074°00'  
Track history (hours):
 
Tides and Currents Weather Stations Pressure Air Temp Water Temp Dewpoint Dewpoint Depression Visibility Wind Speed Wind Dir Waves Ship Positions

Circle Line Xii

Owner: CIRCLE LINE SIGHTSEEING YACHTS, NEW YORK, NY. More information available from US FCC via Universal Licensing System and Coast Guard Vessel Documentation Center.

Last reported at 2015-May-05 00:32 UTC. Time now 2015-May-05 01:10 UTC.
Position N 40°46' W 074°00'.

MMSI: 367032250.

Date/timePositionNaut miles runAvg speedWind from/ knotsBaromVisibWave heightAir tempDewpointWater temp
2015-May-05 00:32N 40°46' W 074°00'3 3.1
2015-May-04 23:33N 40°43' W 073°58'3 2.9
2015-May-04 22:31N 40°46' W 074°00'0 0.0
2015-May-04 21:31N 40°46' W 074°00'2 2.4
2015-May-04 20:33N 40°44' W 073°58'2 2.2
2015-May-04 19:32N 40°46' W 074°00'1 1.5
2015-May-04 18:34N 40°45' W 074°01'3 3.5
2015-May-04 17:33N 40°41' W 074°03'1 0.0
2015-May-03 00:33N 40°42' W 074°01'1 1.1
2015-May-02 23:34N 40°42' W 074°02'5 4.4
2015-May-02 22:32N 40°46' W 074°00'0 0.0
2015-May-02 21:32N 40°46' W 074°00'0 0.0
2015-May-02 20:29N 40°46' W 074°00'0 0.0
2015-May-02 19:32N 40°46' W 074°00'0 0.0
2015-May-02 18:32N 40°46' W 074°00'0 0.0
2015-May-02 17:32N 40°46' W 074°00'0 0.0
2015-May-02 16:32N 40°46' W 074°00'0 0.0
2015-May-02 15:32N 40°46' W 074°00'0 0.0
2015-May-02 14:32N 40°46' W 074°00'0 0.0
2015-May-02 13:32N 40°46' W 074°00'0 0.0
2015-May-02 12:32N 40°46' W 074°00'0 0.0
2015-May-02 11:32N 40°46' W 074°00'0 0.0
2015-May-02 10:32N 40°46' W 074°00'0 0.0
2015-May-02 09:32N 40°46' W 074°00'0 0.0
2015-May-02 08:32N 40°46' W 074°00'0 0.0
2015-May-02 07:32N 40°46' W 074°00'0 0.0
2015-May-02 06:32N 40°46' W 074°00'0 0.0
2015-May-02 05:32N 40°46' W 074°00'0 0.0
2015-May-02 04:32N 40°46' W 074°00'0 0.0
2015-May-02 03:32N 40°46' W 074°00'0 0.0
2015-May-02 02:32N 40°46' W 074°00'0 0.0
2015-May-02 01:32N 40°46' W 074°00'2 2.5
2015-May-02 00:33N 40°43' W 074°01'2 1.9
2015-May-01 23:33N 40°42' W 074°02'4 4.1
2015-May-01 22:31N 40°46' W 074°00'0 0.0
2015-May-01 21:33N 40°46' W 074°00'0 0.0
2015-May-01 20:33N 40°46' W 074°00'0 0.0
2015-May-01 19:33N 40°46' W 074°00'0 0.0
2015-May-01 18:33N 40°46' W 074°00'0 0.0
2015-May-01 17:33N 40°46' W 074°00'0 0.0
2015-May-01 16:33N 40°46' W 074°00'0 0.0
2015-May-01 14:33N 40°46' W 074°00'0 0.0
2015-May-01 13:33N 40°46' W 074°00'0 0.0
2015-Apr-30 21:33N 40°46' W 074°00'2 2.5
2015-Apr-30 20:33N 40°44' W 073°58'2 2.4
2015-Apr-30 19:33N 40°46' W 074°00'2 2.0
2015-Apr-30 18:33N 40°44' W 074°01'3 3.1
2015-Apr-30 17:33N 40°41' W 074°03'5 4.9
2015-Apr-30 16:31N 40°46' W 074°00'0 0.0
2015-Apr-29 19:34N 40°46' W 074°00'0 0.1
2015-Apr-29 18:32N 40°46' W 074°00'0 0.0
2015-Apr-29 17:32N 40°46' W 074°00'3 2.8
2015-Apr-29 16:34N 40°43' W 074°01'2 2.3
2015-Apr-29 15:33N 40°41' W 074°03'5 0.3
2015-Apr-28 19:33N 40°46' W 074°00'0 0.0
2015-Apr-28 18:33N 40°46' W 074°00'0 0.0
2015-Apr-28 17:33N 40°46' W 074°00'2 1.8
2015-Apr-28 16:33N 40°44' W 074°01'3 3.0
2015-Apr-28 15:33N 40°41' W 074°02'5 4.7
2015-Apr-28 14:32N 40°46' W 074°00'0 0.0
2015-Apr-27 21:17N 40°46' W 074°00'54557559.0
2015-Apr-27 20:34S 50°09' W 073°58'54555381.8
2015-Apr-27 19:33N 40°46' W 074°00'2 2.4
2015-Apr-27 18:33N 40°44' W 074°01'2 2.5
2015-Apr-27 17:33N 40°41' W 074°02'5 4.6
2015-Apr-27 16:31N 40°46' W 074°00'  

Dump ship's entire track history